sensor_id;sensor_type;location;lat;lon;timestamp;temperature;humidity
19880;DHT22;10102;50.828;4.416;2022-07-12T00:01:06;20.90;99.90
19880;DHT22;10102;50.828;4.416;2022-07-12T00:03:33;20.90;99.90
19880;DHT22;10102;50.828;4.416;2022-07-12T00:05:59;20.70;99.90
19880;DHT22;10102;50.828;4.416;2022-07-12T00:08:25;20.70;99.90
19880;DHT22;10102;50.828;4.416;2022-07-12T00:10:51;20.20;99.90
19880;DHT22;10102;50.828;4.416;2022-07-12T00:13:17;20.60;99.90
19880;DHT22;10102;50.828;4.416;2022-07-12T00:15:43;20.40;99.90
19880;DHT22;10102;50.828;4.416;2022-07-12T00:18:09;20.50;99.90
19880;DHT22;10102;50.828;4.416;2022-07-12T00:20:35;20.60;99.90
19880;DHT22;10102;50.828;4.416;2022-07-12T00:23:01;20.50;99.90
19880;DHT22;10102;50.828;4.416;2022-07-12T00:25:27;20.50;99.90
19880;DHT22;10102;50.828;4.416;2022-07-12T00:27:53;20.50;99.90
19880;DHT22;10102;50.828;4.416;2022-07-12T00:30:18;20.40;99.90
19880;DHT22;10102;50.828;4.416;2022-07-12T00:32:44;20.40;99.90
19880;DHT22;10102;50.828;4.416;2022-07-12T00:35:10;20.00;99.90
19880;DHT22;10102;50.828;4.416;2022-07-12T00:37:36;20.40;99.90
19880;DHT22;10102;50.828;4.416;2022-07-12T00:40:05;20.40;99.90
19880;DHT22;10102;50.828;4.416;2022-07-12T00:42:31;20.30;99.90
19880;DHT22;10102;50.828;4.416;2022-07-12T00:44:58;20.30;99.90
19880;DHT22;10102;50.828;4.416;2022-07-12T00:47:35;20.30;99.90
19880;DHT22;10102;50.828;4.416;2022-07-12T00:50:07;20.40;99.90
19880;DHT22;10102;50.828;4.416;2022-07-12T00:52:35;20.40;99.90
19880;DHT22;10102;50.828;4.416;2022-07-12T00:55:02;20.40;99.90
19880;DHT22;10102;50.828;4.416;2022-07-12T00:57:27;20.40;99.90
19880;DHT22;10102;50.828;4.416;2022-07-12T00:59:53;20.30;99.90
19880;DHT22;10102;50.828;4.416;2022-07-12T01:02:19;20.50;99.90
19880;DHT22;10102;50.828;4.416;2022-07-12T01:04:45;20.40;99.90
19880;DHT22;10102;50.828;4.416;2022-07-12T01:07:12;20.00;99.90
19880;DHT22;10102;50.828;4.416;2022-07-12T01:09:38;20.20;99.90
19880;DHT22;10102;50.828;4.416;2022-07-12T01:12:04;19.60;99.90
19880;DHT22;10102;50.828;4.416;2022-07-12T01:14:31;20.10;99.90
19880;DHT22;10102;50.828;4.416;2022-07-12T01:16:57;20.20;99.90
19880;DHT22;10102;50.828;4.416;2022-07-12T01:19:24;19.70;99.90
19880;DHT22;10102;50.828;4.416;2022-07-12T01:21:51;20.00;99.90
19880;DHT22;10102;50.828;4.416;2022-07-12T01:24:21;20.10;99.90
19880;DHT22;10102;50.828;4.416;2022-07-12T01:26:47;19.90;99.90
19880;DHT22;10102;50.828;4.416;2022-07-12T01:29:15;19.70;99.90
19880;DHT22;10102;50.828;4.416;2022-07-12T01:31:41;19.90;99.90
19880;DHT22;10102;50.828;4.416;2022-07-12T01:34:07;19.70;99.90
19880;DHT22;10102;50.828;4.416;2022-07-12T01:36:34;19.80;99.90
19880;DHT22;10102;50.828;4.416;2022-07-12T01:39:00;19.90;99.90
19880;DHT22;10102;50.828;4.416;2022-07-12T01:41:25;19.70;99.90
19880;DHT22;10102;50.828;4.416;2022-07-12T01:43:52;19.50;99.90
19880;DHT22;10102;50.828;4.416;2022-07-12T01:46:18;19.60;99.90
19880;DHT22;10102;50.828;4.416;2022-07-12T01:48:44;19.70;99.90
19880;DHT22;10102;50.828;4.416;2022-07-12T01:53:36;19.60;99.90
19880;DHT22;10102;50.828;4.416;2022-07-12T01:56:03;19.50;99.90
19880;DHT22;10102;50.828;4.416;2022-07-12T01:58:30;19.60;99.90
19880;DHT22;10102;50.828;4.416;2022-07-12T02:00:56;19.60;99.90
19880;DHT22;10102;50.828;4.416;2022-07-12T02:03:22;19.60;99.90
19880;DHT22;10102;50.828;4.416;2022-07-12T02:05:48;19.60;99.90
19880;DHT22;10102;50.828;4.416;2022-07-12T02:08:13;19.50;99.90
19880;DHT22;10102;50.828;4.416;2022-07-12T02:10:43;19.60;99.90
19880;DHT22;10102;50.828;4.416;2022-07-12T02:13:09;19.50;99.90
19880;DHT22;10102;50.828;4.416;2022-07-12T02:15:36;19.30;99.90
19880;DHT22;10102;50.828;4.416;2022-07-12T02:18:02;19.30;99.90
19880;DHT22;10102;50.828;4.416;2022-07-12T02:20:28;19.40;99.90
19880;DHT22;10102;50.828;4.416;2022-07-12T02:22:54;19.30;99.90
19880;DHT22;10102;50.828;4.416;2022-07-12T02:25:19;19.10;99.90
19880;DHT22;10102;50.828;4.416;2022-07-12T02:27:45;19.30;99.90
19880;DHT22;10102;50.828;4.416;2022-07-12T02:30:11;19.10;99.90
19880;DHT22;10102;50.828;4.416;2022-07-12T02:32:37;19.10;99.90
19880;DHT22;10102;50.828;4.416;2022-07-12T02:35:05;18.80;99.90
19880;DHT22;10102;50.828;4.416;2022-07-12T02:37:31;18.70;99.90
19880;DHT22;10102;50.828;4.416;2022-07-12T02:42:42;18.30;99.90
19880;DHT22;10102;50.828;4.416;2022-07-12T02:45:09;19.10;99.90
19880;DHT22;10102;50.828;4.416;2022-07-12T02:47:39;18.70;99.90
19880;DHT22;10102;50.828;4.416;2022-07-12T02:50:06;18.90;99.90
19880;DHT22;10102;50.828;4.416;2022-07-12T02:54:58;19.00;99.90
19880;DHT22;10102;50.828;4.416;2022-07-12T02:57:24;18.90;99.90
19880;DHT22;10102;50.828;4.416;2022-07-12T03:02:16;18.80;99.90
19880;DHT22;10102;50.828;4.416;2022-07-12T03:04:42;18.90;99.90
19880;DHT22;10102;50.828;4.416;2022-07-12T03:07:07;18.80;99.90
19880;DHT22;10102;50.828;4.416;2022-07-12T03:09:33;18.90;99.90
19880;DHT22;10102;50.828;4.416;2022-07-12T03:11:59;18.80;99.90
19880;DHT22;10102;50.828;4.416;2022-07-12T03:14:24;18.70;99.90
19880;DHT22;10102;50.828;4.416;2022-07-12T03:16:50;18.60;99.90
19880;DHT22;10102;50.828;4.416;2022-07-12T03:21:42;18.50;99.90
19880;DHT22;10102;50.828;4.416;2022-07-12T03:24:08;18.40;99.90
19880;DHT22;10102;50.828;4.416;2022-07-12T03:26:33;18.50;99.90
19880;DHT22;10102;50.828;4.416;2022-07-12T03:28:59;18.50;99.90
19880;DHT22;10102;50.828;4.416;2022-07-12T03:31:28;18.50;99.90
19880;DHT22;10102;50.828;4.416;2022-07-12T03:33:54;18.20;99.90
19880;DHT22;10102;50.828;4.416;2022-07-12T03:36:19;17.90;99.90
19880;DHT22;10102;50.828;4.416;2022-07-12T03:38:45;18.00;99.90
19880;DHT22;10102;50.828;4.416;2022-07-12T03:41:11;17.90;99.90
19880;DHT22;10102;50.828;4.416;2022-07-12T03:43:37;17.90;99.90
19880;DHT22;10102;50.828;4.416;2022-07-12T03:46:03;18.10;99.90
19880;DHT22;10102;50.828;4.416;2022-07-12T03:48:29;18.00;99.90
19880;DHT22;10102;50.828;4.416;2022-07-12T03:53:21;18.00;99.90
19880;DHT22;10102;50.828;4.416;2022-07-12T03:55:47;18.10;99.90
19880;DHT22;10102;50.828;4.416;2022-07-12T03:58:13;18.30;99.90
19880;DHT22;10102;50.828;4.416;2022-07-12T04:00:39;18.00;99.90
19880;DHT22;10102;50.828;4.416;2022-07-12T04:05:34;18.10;99.90
19880;DHT22;10102;50.828;4.416;2022-07-12T04:07:59;18.10;99.90
19880;DHT22;10102;50.828;4.416;2022-07-12T04:12:53;17.90;99.90
19880;DHT22;10102;50.828;4.416;2022-07-12T04:15:19;17.80;99.90
19880;DHT22;10102;50.828;4.416;2022-07-12T04:17:44;17.80;99.90
19880;DHT22;10102;50.828;4.416;2022-07-12T04:20:10;18.10;99.90
19880;DHT22;10102;50.828;4.416;2022-07-12T04:22:37;17.90;99.90
19880;DHT22;10102;50.828;4.416;2022-07-12T04:25:03;17.90;99.90
19880;DHT22;10102;50.828;4.416;2022-07-12T04:27:28;18.10;99.90
19880;DHT22;10102;50.828;4.416;2022-07-12T04:32:20;18.20;99.90
19880;DHT22;10102;50.828;4.416;2022-07-12T04:34:46;18.30;99.90
19880;DHT22;10102;50.828;4.416;2022-07-12T04:37:12;18.90;99.90
19880;DHT22;10102;50.828;4.416;2022-07-12T04:39:37;18.50;99.90
19880;DHT22;10102;50.828;4.416;2022-07-12T04:42:03;18.40;99.90
19880;DHT22;10102;50.828;4.416;2022-07-12T04:44:29;18.80;99.90
19880;DHT22;10102;50.828;4.416;2022-07-12T04:46:54;18.80;99.90
19880;DHT22;10102;50.828;4.416;2022-07-12T04:49:20;18.80;99.90
19880;DHT22;10102;50.828;4.416;2022-07-12T04:51:46;18.70;99.90
19880;DHT22;10102;50.828;4.416;2022-07-12T04:54:11;18.90;99.90
19880;DHT22;10102;50.828;4.416;2022-07-12T04:56:37;18.90;99.90
19880;DHT22;10102;50.828;4.416;2022-07-12T04:59:03;19.40;99.90
19880;DHT22;10102;50.828;4.416;2022-07-12T05:01:29;19.20;99.90
19880;DHT22;10102;50.828;4.416;2022-07-12T05:03:55;19.30;99.90
19880;DHT22;10102;50.828;4.416;2022-07-12T05:06:21;19.40;99.90
19880;DHT22;10102;50.828;4.416;2022-07-12T05:08:48;19.60;99.90
19880;DHT22;10102;50.828;4.416;2022-07-12T05:11:14;19.60;99.90
19880;DHT22;10102;50.828;4.416;2022-07-12T05:16:07;19.70;99.90
19880;DHT22;10102;50.828;4.416;2022-07-12T05:18:34;19.90;99.90
19880;DHT22;10102;50.828;4.416;2022-07-12T05:20:59;20.20;99.90
19880;DHT22;10102;50.828;4.416;2022-07-12T05:23:25;19.90;99.90
19880;DHT22;10102;50.828;4.416;2022-07-12T05:30:43;20.30;99.90
19880;DHT22;10102;50.828;4.416;2022-07-12T05:33:09;20.20;99.90
19880;DHT22;10102;50.828;4.416;2022-07-12T05:35:35;20.40;99.90
19880;DHT22;10102;50.828;4.416;2022-07-12T05:38:01;20.30;99.90
19880;DHT22;10102;50.828;4.416;2022-07-12T05:40:28;20.50;99.90
19880;DHT22;10102;50.828;4.416;2022-07-12T05:42:53;20.40;99.90
19880;DHT22;10102;50.828;4.416;2022-07-12T05:45:19;20.60;99.90
19880;DHT22;10102;50.828;4.416;2022-07-12T05:47:45;20.90;99.90
19880;DHT22;10102;50.828;4.416;2022-07-12T05:50:10;21.10;99.90
19880;DHT22;10102;50.828;4.416;2022-07-12T05:52:36;21.00;99.90
19880;DHT22;10102;50.828;4.416;2022-07-12T05:55:20;21.20;99.90
19880;DHT22;10102;50.828;4.416;2022-07-12T05:57:46;21.20;99.90
19880;DHT22;10102;50.828;4.416;2022-07-12T06:00:12;21.20;99.90
19880;DHT22;10102;50.828;4.416;2022-07-12T06:05:04;21.70;99.90
19880;DHT22;10102;50.828;4.416;2022-07-12T06:07:30;21.70;99.90
19880;DHT22;10102;50.828;4.416;2022-07-12T06:09:56;21.70;99.90
19880;DHT22;10102;50.828;4.416;2022-07-12T06:12:21;22.00;99.90
19880;DHT22;10102;50.828;4.416;2022-07-12T06:14:47;22.20;99.90
19880;DHT22;10102;50.828;4.416;2022-07-12T06:17:13;22.20;99.90
19880;DHT22;10102;50.828;4.416;2022-07-12T06:19:39;22.70;99.90
19880;DHT22;10102;50.828;4.416;2022-07-12T06:22:05;22.70;99.90
19880;DHT22;10102;50.828;4.416;2022-07-12T06:24:30;22.50;99.90
19880;DHT22;10102;50.828;4.416;2022-07-12T06:26:56;22.90;99.90
19880;DHT22;10102;50.828;4.416;2022-07-12T06:29:21;22.70;99.90
19880;DHT22;10102;50.828;4.416;2022-07-12T06:31:47;22.90;99.90
19880;DHT22;10102;50.828;4.416;2022-07-12T06:34:13;22.90;99.90
19880;DHT22;10102;50.828;4.416;2022-07-12T06:39:05;22.80;99.90
19880;DHT22;10102;50.828;4.416;2022-07-12T06:41:30;22.90;99.90
19880;DHT22;10102;50.828;4.416;2022-07-12T06:43:56;22.90;99.90
19880;DHT22;10102;50.828;4.416;2022-07-12T06:46:21;22.80;99.90
19880;DHT22;10102;50.828;4.416;2022-07-12T06:48:47;22.90;99.90
19880;DHT22;10102;50.828;4.416;2022-07-12T06:51:13;22.90;99.90
19880;DHT22;10102;50.828;4.416;2022-07-12T06:53:38;23.10;99.90
19880;DHT22;10102;50.828;4.416;2022-07-12T06:56:04;22.70;99.90
19880;DHT22;10102;50.828;4.416;2022-07-12T06:58:30;22.50;99.90
19880;DHT22;10102;50.828;4.416;2022-07-12T07:00:55;22.70;99.90
19880;DHT22;10102;50.828;4.416;2022-07-12T07:03:21;23.00;99.90
19880;DHT22;10102;50.828;4.416;2022-07-12T07:05:47;23.10;99.90
19880;DHT22;10102;50.828;4.416;2022-07-12T07:08:12;23.30;99.90
19880;DHT22;10102;50.828;4.416;2022-07-12T07:10:38;23.40;99.90
19880;DHT22;10102;50.828;4.416;2022-07-12T07:13:04;23.50;99.90
19880;DHT22;10102;50.828;4.416;2022-07-12T07:15:29;23.40;99.90
19880;DHT22;10102;50.828;4.416;2022-07-12T07:17:55;23.30;99.90
19880;DHT22;10102;50.828;4.416;2022-07-12T07:20:22;23.60;99.90
19880;DHT22;10102;50.828;4.416;2022-07-12T07:22:47;23.40;99.90
19880;DHT22;10102;50.828;4.416;2022-07-12T07:25:13;23.60;99.90
19880;DHT22;10102;50.828;4.416;2022-07-12T07:27:40;23.90;99.90
19880;DHT22;10102;50.828;4.416;2022-07-12T07:30:06;25.60;99.90
19880;DHT22;10102;50.828;4.416;2022-07-12T07:32:50;23.90;99.90
19880;DHT22;10102;50.828;4.416;2022-07-12T07:35:16;23.90;99.90
19880;DHT22;10102;50.828;4.416;2022-07-12T07:37:42;24.00;99.90
19880;DHT22;10102;50.828;4.416;2022-07-12T07:40:08;24.20;99.90
19880;DHT22;10102;50.828;4.416;2022-07-12T07:42:34;24.70;99.90
19880;DHT22;10102;50.828;4.416;2022-07-12T07:44:59;24.80;99.90
19880;DHT22;10102;50.828;4.416;2022-07-12T07:47:25;24.70;99.90
19880;DHT22;10102;50.828;4.416;2022-07-12T07:49:54;23.90;99.90
19880;DHT22;10102;50.828;4.416;2022-07-12T07:52:20;24.80;99.90
19880;DHT22;10102;50.828;4.416;2022-07-12T07:54:45;24.80;99.90
19880;DHT22;10102;50.828;4.416;2022-07-12T07:57:11;24.90;99.90
19880;DHT22;10102;50.828;4.416;2022-07-12T07:59:36;24.80;99.90
19880;DHT22;10102;50.828;4.416;2022-07-12T08:02:02;25.00;99.90
19880;DHT22;10102;50.828;4.416;2022-07-12T08:04:28;25.00;99.90
19880;DHT22;10102;50.828;4.416;2022-07-12T08:06:54;25.10;99.90
19880;DHT22;10102;50.828;4.416;2022-07-12T08:09:21;25.30;99.90
19880;DHT22;10102;50.828;4.416;2022-07-12T08:11:47;25.30;99.90
19880;DHT22;10102;50.828;4.416;2022-07-12T08:14:14;25.10;99.90
19880;DHT22;10102;50.828;4.416;2022-07-12T08:16:39;25.30;99.90
19880;DHT22;10102;50.828;4.416;2022-07-12T08:19:06;25.30;99.90
19880;DHT22;10102;50.828;4.416;2022-07-12T08:21:32;25.30;99.90
19880;DHT22;10102;50.828;4.416;2022-07-12T08:23:58;25.30;99.90
19880;DHT22;10102;50.828;4.416;2022-07-12T08:26:24;25.40;99.90
19880;DHT22;10102;50.828;4.416;2022-07-12T08:28:51;25.40;99.90
19880;DHT22;10102;50.828;4.416;2022-07-12T08:31:16;25.50;99.90
19880;DHT22;10102;50.828;4.416;2022-07-12T08:33:42;25.50;99.90
19880;DHT22;10102;50.828;4.416;2022-07-12T08:36:08;25.00;99.90
19880;DHT22;10102;50.828;4.416;2022-07-12T08:38:38;25.10;99.90
19880;DHT22;10102;50.828;4.416;2022-07-12T08:41:04;24.80;99.90
19880;DHT22;10102;50.828;4.416;2022-07-12T08:43:33;24.60;99.90
19880;DHT22;10102;50.828;4.416;2022-07-12T08:46:07;24.40;99.90
19880;DHT22;10102;50.828;4.416;2022-07-12T08:48:34;24.70;99.90
19880;DHT22;10102;50.828;4.416;2022-07-12T08:51:10;24.90;99.90
19880;DHT22;10102;50.828;4.416;2022-07-12T08:53:37;25.10;99.90
19880;DHT22;10102;50.828;4.416;2022-07-12T08:56:04;25.00;99.90
19880;DHT22;10102;50.828;4.416;2022-07-12T08:58:30;22.60;99.90
19880;DHT22;10102;50.828;4.416;2022-07-12T09:00:56;25.50;99.90
19880;DHT22;10102;50.828;4.416;2022-07-12T09:03:21;25.80;99.90
19880;DHT22;10102;50.828;4.416;2022-07-12T09:05:52;25.70;99.90
19880;DHT22;10102;50.828;4.416;2022-07-12T09:08:31;25.70;99.90
19880;DHT22;10102;50.828;4.416;2022-07-12T09:11:01;25.50;99.90
19880;DHT22;10102;50.828;4.416;2022-07-12T09:16:16;26.40;99.90
19880;DHT22;10102;50.828;4.416;2022-07-12T09:18:43;26.90;99.90
19880;DHT22;10102;50.828;4.416;2022-07-12T09:21:12;27.20;99.90
19880;DHT22;10102;50.828;4.416;2022-07-12T09:23:51;27.40;99.90
19880;DHT22;10102;50.828;4.416;2022-07-12T09:26:17;27.30;99.90
19880;DHT22;10102;50.828;4.416;2022-07-12T09:28:43;27.50;99.90
19880;DHT22;10102;50.828;4.416;2022-07-12T09:31:09;27.60;99.90
19880;DHT22;10102;50.828;4.416;2022-07-12T09:33:34;27.20;99.90
19880;DHT22;10102;50.828;4.416;2022-07-12T09:36:24;27.00;99.90
19880;DHT22;10102;50.828;4.416;2022-07-12T09:38:51;24.20;99.90
19880;DHT22;10102;50.828;4.416;2022-07-12T09:41:26;27.10;99.90
19880;DHT22;10102;50.828;4.416;2022-07-12T09:43:53;27.20;99.90
19880;DHT22;10102;50.828;4.416;2022-07-12T09:46:19;27.40;99.90
19880;DHT22;10102;50.828;4.416;2022-07-12T09:48:45;27.10;99.90
19880;DHT22;10102;50.828;4.416;2022-07-12T09:51:14;27.10;99.90
19880;DHT22;10102;50.828;4.416;2022-07-12T09:53:45;27.40;99.90
19880;DHT22;10102;50.828;4.416;2022-07-12T09:56:16;27.20;99.90
19880;DHT22;10102;50.828;4.416;2022-07-12T09:58:52;27.50;99.90
19880;DHT22;10102;50.828;4.416;2022-07-12T10:01:18;27.70;99.90
19880;DHT22;10102;50.828;4.416;2022-07-12T10:03:44;27.60;99.90
19880;DHT22;10102;50.828;4.416;2022-07-12T10:06:12;27.70;99.90
19880;DHT22;10102;50.828;4.416;2022-07-12T10:08:38;27.60;99.90
19880;DHT22;10102;50.828;4.416;2022-07-12T10:11:04;27.70;99.90
19880;DHT22;10102;50.828;4.416;2022-07-12T10:13:31;27.70;99.90
19880;DHT22;10102;50.828;4.416;2022-07-12T10:16:00;28.10;99.90
19880;DHT22;10102;50.828;4.416;2022-07-12T10:18:27;28.40;99.90
19880;DHT22;10102;50.828;4.416;2022-07-12T10:20:53;28.70;99.90
19880;DHT22;10102;50.828;4.416;2022-07-12T10:23:37;28.80;99.90
19880;DHT22;10102;50.828;4.416;2022-07-12T10:26:23;28.10;99.90
19880;DHT22;10102;50.828;4.416;2022-07-12T10:29:06;28.10;99.90
19880;DHT22;10102;50.828;4.416;2022-07-12T10:31:37;28.50;99.90
19880;DHT22;10102;50.828;4.416;2022-07-12T10:34:24;28.60;99.90
19880;DHT22;10102;50.828;4.416;2022-07-12T10:39:26;28.30;99.90
19880;DHT22;10102;50.828;4.416;2022-07-12T10:44:38;28.60;99.90
19880;DHT22;10102;50.828;4.416;2022-07-12T10:47:05;28.60;99.90
19880;DHT22;10102;50.828;4.416;2022-07-12T10:49:33;28.60;99.90
19880;DHT22;10102;50.828;4.416;2022-07-12T10:55:15;28.60;99.90
19880;DHT22;10102;50.828;4.416;2022-07-12T10:57:41;28.90;99.90
19880;DHT22;10102;50.828;4.416;2022-07-12T11:00:09;29.20;99.90
19880;DHT22;10102;50.828;4.416;2022-07-12T11:02:36;29.40;99.90
19880;DHT22;10102;50.828;4.416;2022-07-12T11:05:02;29.50;99.90
19880;DHT22;10102;50.828;4.416;2022-07-12T11:07:28;29.50;99.90
19880;DHT22;10102;50.828;4.416;2022-07-12T11:09:55;29.80;99.90
19880;DHT22;10102;50.828;4.416;2022-07-12T11:12:28;29.60;99.90
19880;DHT22;10102;50.828;4.416;2022-07-12T11:14:54;29.80;99.90
19880;DHT22;10102;50.828;4.416;2022-07-12T11:17:30;30.20;99.90
19880;DHT22;10102;50.828;4.416;2022-07-12T11:22:32;30.70;99.90
19880;DHT22;10102;50.828;4.416;2022-07-12T11:24:59;31.10;99.90
19880;DHT22;10102;50.828;4.416;2022-07-12T11:27:26;31.20;99.90
19880;DHT22;10102;50.828;4.416;2022-07-12T11:29:59;30.80;99.90
19880;DHT22;10102;50.828;4.416;2022-07-12T11:32:38;31.30;99.90
19880;DHT22;10102;50.828;4.416;2022-07-12T11:35:17;31.70;99.90
19880;DHT22;10102;50.828;4.416;2022-07-12T11:37:54;32.20;98.80
19880;DHT22;10102;50.828;4.416;2022-07-12T11:42:57;32.70;98.40
19880;DHT22;10102;50.828;4.416;2022-07-12T11:45:25;33.40;96.70
19880;DHT22;10102;50.828;4.416;2022-07-12T11:47:51;34.20;95.00
19880;DHT22;10102;50.828;4.416;2022-07-12T11:50:18;34.40;94.00
19880;DHT22;10102;50.828;4.416;2022-07-12T11:52:44;35.00;92.80
19880;DHT22;10102;50.828;4.416;2022-07-12T11:55:10;36.30;88.40
19880;DHT22;10102;50.828;4.416;2022-07-12T11:57:36;37.90;92.40
19880;DHT22;10102;50.828;4.416;2022-07-12T12:00:21;37.60;84.50
19880;DHT22;10102;50.828;4.416;2022-07-12T12:02:52;39.80;77.30
19880;DHT22;10102;50.828;4.416;2022-07-12T12:05:19;42.30;69.00
19880;DHT22;10102;50.828;4.416;2022-07-12T12:07:46;44.70;63.20
19880;DHT22;10102;50.828;4.416;2022-07-12T12:10:15;45.10;58.50
19880;DHT22;10102;50.828;4.416;2022-07-12T12:12:50;46.40;55.50
19880;DHT22;10102;50.828;4.416;2022-07-12T12:15:24;47.90;53.00
19880;DHT22;10102;50.828;4.416;2022-07-12T12:20:23;47.30;52.10
19880;DHT22;10102;50.828;4.416;2022-07-12T12:23:00;46.40;52.80
19880;DHT22;10102;50.828;4.416;2022-07-12T12:25:27;45.80;52.50
19880;DHT22;10102;50.828;4.416;2022-07-12T12:30:23;47.70;49.10
19880;DHT22;10102;50.828;4.416;2022-07-12T12:32:54;48.80;48.10
19880;DHT22;10102;50.828;4.416;2022-07-12T12:35:29;48.80;49.60
19880;DHT22;10102;50.828;4.416;2022-07-12T12:37:57;48.00;49.20
19880;DHT22;10102;50.828;4.416;2022-07-12T12:40:27;47.60;48.50
19880;DHT22;10102;50.828;4.416;2022-07-12T12:43:09;46.10;49.70
19880;DHT22;10102;50.828;4.416;2022-07-12T12:45:47;48.00;50.30
19880;DHT22;10102;50.828;4.416;2022-07-12T12:48:21;50.10;47.60
19880;DHT22;10102;50.828;4.416;2022-07-12T12:50:49;51.20;45.60
19880;DHT22;10102;50.828;4.416;2022-07-12T12:53:24;52.30;44.20
19880;DHT22;10102;50.828;4.416;2022-07-12T12:55:52;51.50;43.70
19880;DHT22;10102;50.828;4.416;2022-07-12T12:58:19;52.00;44.40
19880;DHT22;10102;50.828;4.416;2022-07-12T13:00:47;52.50;43.20
19880;DHT22;10102;50.828;4.416;2022-07-12T13:03:15;52.80;42.70
19880;DHT22;10102;50.828;4.416;2022-07-12T13:05:42;52.70;42.40
19880;DHT22;10102;50.828;4.416;2022-07-12T13:08:09;52.30;42.70
19880;DHT22;10102;50.828;4.416;2022-07-12T13:10:36;52.50;42.20
19880;DHT22;10102;50.828;4.416;2022-07-12T13:13:04;53.50;41.60
19880;DHT22;10102;50.828;4.416;2022-07-12T13:15:30;54.40;40.30
19880;DHT22;10102;50.828;4.416;2022-07-12T13:17:56;52.60;40.40
19880;DHT22;10102;50.828;4.416;2022-07-12T13:20:24;52.10;42.20
19880;DHT22;10102;50.828;4.416;2022-07-12T13:22:51;50.10;42.00
19880;DHT22;10102;50.828;4.416;2022-07-12T13:25:17;49.20;44.20
19880;DHT22;10102;50.828;4.416;2022-07-12T13:27:43;47.80;45.10
19880;DHT22;10102;50.828;4.416;2022-07-12T13:30:11;47.50;46.40
19880;DHT22;10102;50.828;4.416;2022-07-12T13:32:38;46.40;45.10
19880;DHT22;10102;50.828;4.416;2022-07-12T13:35:05;46.60;46.00
19880;DHT22;10102;50.828;4.416;2022-07-12T13:37:32;46.70;46.50
19880;DHT22;10102;50.828;4.416;2022-07-12T13:39:58;46.10;46.20
19880;DHT22;10102;50.828;4.416;2022-07-12T13:42:39;45.80;46.70
19880;DHT22;10102;50.828;4.416;2022-07-12T13:45:07;45.60;48.40
19880;DHT22;10102;50.828;4.416;2022-07-12T13:47:35;44.90;48.30
19880;DHT22;10102;50.828;4.416;2022-07-12T13:50:01;44.80;46.50
19880;DHT22;10102;50.828;4.416;2022-07-12T13:52:27;45.10;46.00
19880;DHT22;10102;50.828;4.416;2022-07-12T13:54:53;45.00;46.40
19880;DHT22;10102;50.828;4.416;2022-07-12T13:57:19;46.10;46.20
19880;DHT22;10102;50.828;4.416;2022-07-12T13:59:44;47.90;44.50
19880;DHT22;10102;50.828;4.416;2022-07-12T14:02:11;48.30;42.50
19880;DHT22;10102;50.828;4.416;2022-07-12T14:04:38;48.30;42.90
19880;DHT22;10102;50.828;4.416;2022-07-12T14:07:04;49.00;43.40
19880;DHT22;10102;50.828;4.416;2022-07-12T14:09:30;48.60;44.30
19880;DHT22;10102;50.828;4.416;2022-07-12T14:11:55;47.50;44.60
19880;DHT22;10102;50.828;4.416;2022-07-12T14:14:21;47.90;44.20
19880;DHT22;10102;50.828;4.416;2022-07-12T14:17:05;46.10;44.70
19880;DHT22;10102;50.828;4.416;2022-07-12T14:19:32;48.40;44.00
19880;DHT22;10102;50.828;4.416;2022-07-12T14:21:58;50.70;42.50
19880;DHT22;10102;50.828;4.416;2022-07-12T14:24:24;52.30;40.00
19880;DHT22;10102;50.828;4.416;2022-07-12T14:26:50;53.40;39.30
19880;DHT22;10102;50.828;4.416;2022-07-12T14:29:15;51.20;40.80
19880;DHT22;10102;50.828;4.416;2022-07-12T14:31:41;49.10;43.10
19880;DHT22;10102;50.828;4.416;2022-07-12T14:34:07;49.90;42.70
19880;DHT22;10102;50.828;4.416;2022-07-12T14:36:33;51.40;41.50
19880;DHT22;10102;50.828;4.416;2022-07-12T14:38:59;52.90;39.80
19880;DHT22;10102;50.828;4.416;2022-07-12T14:41:25;52.80;38.50
19880;DHT22;10102;50.828;4.416;2022-07-12T14:43:50;54.40;38.50
19880;DHT22;10102;50.828;4.416;2022-07-12T14:46:16;53.70;38.50
19880;DHT22;10102;50.828;4.416;2022-07-12T14:48:43;53.20;39.30
19880;DHT22;10102;50.828;4.416;2022-07-12T14:51:09;54.30;38.50
19880;DHT22;10102;50.828;4.416;2022-07-12T14:53:35;55.80;37.70
19880;DHT22;10102;50.828;4.416;2022-07-12T14:56:01;56.40;36.60
19880;DHT22;10102;50.828;4.416;2022-07-12T14:58:27;56.90;35.90
19880;DHT22;10102;50.828;4.416;2022-07-12T15:00:56;57.00;35.60
19880;DHT22;10102;50.828;4.416;2022-07-12T15:03:22;57.60;35.90
19880;DHT22;10102;50.828;4.416;2022-07-12T15:05:48;57.20;35.10
19880;DHT22;10102;50.828;4.416;2022-07-12T15:08:13;56.60;35.70
19880;DHT22;10102;50.828;4.416;2022-07-12T15:10:39;55.20;35.90
19880;DHT22;10102;50.828;4.416;2022-07-12T15:13:05;54.90;36.40
19880;DHT22;10102;50.828;4.416;2022-07-12T15:15:31;53.80;35.60
19880;DHT22;10102;50.828;4.416;2022-07-12T15:17:57;54.30;36.60
19880;DHT22;10102;50.828;4.416;2022-07-12T15:20:23;51.90;36.70
19880;DHT22;10102;50.828;4.416;2022-07-12T15:22:49;50.10;38.10
19880;DHT22;10102;50.828;4.416;2022-07-12T15:25:14;49.70;38.90
19880;DHT22;10102;50.828;4.416;2022-07-12T15:27:40;48.60;39.60
19880;DHT22;10102;50.828;4.416;2022-07-12T15:30:06;47.90;40.40
19880;DHT22;10102;50.828;4.416;2022-07-12T15:32:32;48.20;40.10
19880;DHT22;10102;50.828;4.416;2022-07-12T15:34:58;48.50;40.50
19880;DHT22;10102;50.828;4.416;2022-07-12T15:37:23;48.60;40.50
19880;DHT22;10102;50.828;4.416;2022-07-12T15:39:49;48.50;40.40
19880;DHT22;10102;50.828;4.416;2022-07-12T15:42:15;47.90;41.20
19880;DHT22;10102;50.828;4.416;2022-07-12T15:44:40;47.00;42.40
19880;DHT22;10102;50.828;4.416;2022-07-12T15:47:08;45.00;43.30
19880;DHT22;10102;50.828;4.416;2022-07-12T15:49:39;44.00;45.80
19880;DHT22;10102;50.828;4.416;2022-07-12T15:52:06;42.70;45.00
19880;DHT22;10102;50.828;4.416;2022-07-12T15:54:51;41.90;46.00
19880;DHT22;10102;50.828;4.416;2022-07-12T15:57:16;42.20;47.60
19880;DHT22;10102;50.828;4.416;2022-07-12T15:59:43;42.60;46.50
19880;DHT22;10102;50.828;4.416;2022-07-12T16:02:08;43.10;45.80
19880;DHT22;10102;50.828;4.416;2022-07-12T16:04:35;43.20;45.20
19880;DHT22;10102;50.828;4.416;2022-07-12T16:07:01;42.70;45.80
19880;DHT22;10102;50.828;4.416;2022-07-12T16:09:28;41.30;45.20
19880;DHT22;10102;50.828;4.416;2022-07-12T16:11:54;39.50;47.40
19880;DHT22;10102;50.828;4.416;2022-07-12T16:14:21;39.00;48.50
19880;DHT22;10102;50.828;4.416;2022-07-12T16:16:47;38.60;49.50
19880;DHT22;10102;50.828;4.416;2022-07-12T16:19:13;38.50;51.30
19880;DHT22;10102;50.828;4.416;2022-07-12T16:21:39;38.60;50.10
19880;DHT22;10102;50.828;4.416;2022-07-12T16:24:05;38.60;51.10
19880;DHT22;10102;50.828;4.416;2022-07-12T16:26:31;38.50;50.20